Skip Navigation LinksHome page > Weather > Current weather Skip Navigation Links

Current Weather

Central Park, New York

For information only: do not use for flight planning or navigation.
Latest weather
Observation time Monday, May 22, 2017 11:21 AM EDT
Local time Monday, May 22, 2017 11:41 AM EDT
Flight conditions Instrument Meteorological Conditions
Winds
Wind direction variable
Wind speed 3 mph
Visibility 2.5 mi.
Present weather light rain, mist
Sky condition
Ceiling 700 ft. overcast
Cloud layer overcast 700 ft.
Temperature 55°F
Dewpoint 54°F
Altimeter 30.13 in.Hg
Derived measurements
Relative humidity 94%
Density altitude -123 ft.
Remarks
Special weather observation.
Fully automated report.
METAR SPUS81 KWBC 221524 SPECI KNYC 221521Z AUTO VRB03KT 2 1/2SM -RA BR OVC007 13/12 A3013

Settings

Location code

InnerDrive.Weather 4.0.6144.1 Release CLR 4.0.30319.36366
Copyright ©2015 Inner Drive Technology. All rights reserved. Portions Copyright ©1986-2015 David Braverman.

Find weather

Site navigation


Skip Navigation Links

Place info

Page info

PayPal - The safer, easier way to pay online!

Return home.

Copyright ©2017 Inner Drive Technology. Purveyors of fine, hand-crafted computer software. Page printed 2017-05-22T15:41:13 UTC.